Sun Peaks, Canada
Current Conditions -  °F | °C
As of 9:00 PM on Thursday 30 Oct 2014 (Local Time) from CYKA Reporting Station
Broken Clouds Broken Clouds  
Wind Chill: 54°   Ceiling: 9000
Heat Index: 54°   Visibility: 40mi
Dew Point: 45°   Wind: 18mph
Humidity: 72%   Direction: 70°ENE
Pressure: 29.73"   Gusts: 24mph
Location:  50.88°N, 119.92°W
Report Text: CYKA 310400Z 07016G21KT 40SM BKN090 BKN150 12/07 A2973 RMK AC5AC2 SLP075 DENSITY ALT 1200FT
Loading
Personal Weather Stations






























Interactive Weather Map
Tropical Storm Tracking
New forecast layout! Learn more

10-Day Weather Forecast

Advertisements
Track Severe Weather on mobile